Skip to main content

NOAA/GLERL Met Station at Michigan City, IN

Previous 3 Hours (2 minute increments)
See also Previous 5 Days (top of hour)
Jump down to Data
Switch to [English][Metric]
Zoom: Click and drag, Pan: shift-click and drag, Unzoom: double-click, Unzoom All





See also 1-day windrose plot


NOAA/GLERL Met Station at Michigan City, IN

Previous 3 Hours (2 minute increments)
See also Previous 5 Days (top of hour only)
Jump up to Graphs
Switch to [English][Metric]
                  Wind  Wind  Wind   Air   Dew   Rel     Sta   PAR
                   Spd   Gst   Dir  Temp    Pt   Hum    Pres uE/m2/
YYYY-MM-DD   CST   kts   kts   deg     F     F     %   in Hg   sec
2019-11-20 07:06   2.7   4.1   170  39.4  37.7  93.7    0.00     0
2019-11-20 07:04   3.7   4.3   186  39.2  37.6  93.9    0.00     0
2019-11-20 07:02   3.9   4.7   177  39.2  37.6  94.0    0.00     0
2019-11-20 07:00   4.5   4.9   181  39.2  37.6  94.0    0.00     0
2019-11-20 06:58   4.5   5.2   186  39.2  37.7  94.1    0.00     0
2019-11-20 06:56   4.1   4.9   187  39.2  37.7  94.2    0.00     0
2019-11-20 06:54   4.1   4.9   189  39.2  37.7  94.3    0.00     0
2019-11-20 06:52   4.3   4.7   192  39.2  37.7  94.4    0.00     0
2019-11-20 06:50   4.5   5.1   190  39.0  37.6  94.4    0.00     0
2019-11-20 06:48   4.1   4.7   194  39.0  37.6  94.6    0.00     0
2019-11-20 06:46   4.5   5.2   199  39.0  37.6  94.7    0.00     0
2019-11-20 06:44   3.9   4.3   195  39.0  37.6  94.6    0.00     0
2019-11-20 06:42   3.5   3.9   198  39.0  37.6  94.7    0.00     0
2019-11-20 06:40   4.3   5.1   200  39.0  37.7  94.8    0.00     0
2019-11-20 06:38   4.9   5.4   200  39.2  37.9  95.0    0.00     0
2019-11-20 06:36   5.4   6.2   205  39.0  37.8  95.2    0.00     0
2019-11-20 06:34   5.8   6.2   202  39.0  37.8  95.4    0.00     0
2019-11-20 06:32   6.0   6.4   207  39.0  37.8  95.5    0.00     0
2019-11-20 06:30   6.0   6.6   204  39.0  37.9  95.6    0.00     0
2019-11-20 06:28   5.4   6.0   203  39.0  37.9  95.7    0.00     0
2019-11-20 06:26   5.8   6.4   205  39.0  37.9  95.7    0.00     0
2019-11-20 06:24   6.0   6.8   207  39.0  37.9  95.7    0.00     0
2019-11-20 06:22   5.8   6.6   206  39.0  37.9  95.7    0.00     0
2019-11-20 06:20   6.0   6.4   208  39.0  37.9  95.6    0.00     0
2019-11-20 06:18   5.8   6.6   209  39.0  37.9  95.6    0.00     0
2019-11-20 06:16   5.4   5.8   210  39.0  37.8  95.5    0.00     0
2019-11-20 06:14   5.2   5.8   210  39.0  37.8  95.4    0.00     0
2019-11-20 06:12   5.4   6.2   211  39.0  37.8  95.3    0.00     0
2019-11-20 06:10   5.4   5.8   209  39.0  37.8  95.2    0.00     0
2019-11-20 06:08   5.2   5.6   209  39.0  37.7  95.1    0.00     0
2019-11-20 06:06   5.4   5.8   208  39.2  37.9  95.0    0.00     0
2019-11-20 06:04   4.7   5.2   212  39.2  37.9  94.9    0.00     0
2019-11-20 06:02   4.7   5.1   209  39.0  37.6  94.7    0.00     0
2019-11-20 06:00   4.9   5.1   205  39.2  37.8  94.6    0.00     0
2019-11-20 05:58   4.7   5.2   198  39.2  37.8  94.5    0.00     0
2019-11-20 05:56   4.9   5.4   202  39.2  37.7  94.4    0.00     0
2019-11-20 05:54   4.7   5.4   201  39.2  37.7  94.4    0.00     0
2019-11-20 05:52   5.1   5.4   199  39.2  37.7  94.3    0.00     0
2019-11-20 05:50   5.1   5.4   203  39.2  37.7  94.3    0.00     0
2019-11-20 05:48   4.3   4.7   201  39.2  37.7  94.3    0.00     0
2019-11-20 05:46   4.5   5.1   206  39.2  37.8  94.5    0.00     0
2019-11-20 05:44   4.1   4.7   201  39.2  37.8  94.7    0.00     0
2019-11-20 05:42   3.3   4.1   203  39.2  37.9  94.9    0.00     0
2019-11-20 05:40   3.3   3.9   196  39.2  37.9  95.1    0.00     0
2019-11-20 05:38   3.3   3.9   196  39.2  37.9  95.2    0.00     0
2019-11-20 05:36   3.5   4.1   203  39.2  38.0  95.3    0.00     0
2019-11-20 05:34   3.1   3.5   193  39.2  38.0  95.4    0.00     0
2019-11-20 05:32   3.3   3.7   190  39.2  38.0  95.4    0.00     0
2019-11-20 05:30   3.1   3.7   194  39.2  38.0  95.5    0.00     0
2019-11-20 05:28   3.1   3.5   192  39.0  37.8  95.5    0.00     0
2019-11-20 05:26   3.3   3.5   196  39.0  37.8  95.5    0.00     0
2019-11-20 05:24   3.3   3.9   199  39.0  37.8  95.4    0.00     0
2019-11-20 05:22   3.9   4.5   196  39.0  37.8  95.4    0.00     0
2019-11-20 05:20   4.5   5.1   202  39.2  38.0  95.3    0.00     0
2019-11-20 05:18   4.5   5.1   208  39.2  38.0  95.4    0.00     0
2019-11-20 05:16   4.5   4.9   204  39.4  38.2  95.5    0.00     0
2019-11-20 05:14   4.9   5.2   215  39.4  38.2  95.5    0.00     0
2019-11-20 05:12   4.5   5.1   219  39.4  38.2  95.5    0.00     0
2019-11-20 05:10   4.3   4.9   212  39.4  38.2  95.5    0.00     0
2019-11-20 05:08   4.5   5.1   209  39.4  38.2  95.5    0.00     0
2019-11-20 05:06   4.7   5.1   214  39.4  38.2  95.4    0.00     0
2019-11-20 05:04   4.9   5.4   210  39.4  38.2  95.3    0.00     0
2019-11-20 05:02   5.1   5.4   211  39.4  38.1  95.2    0.00     0
2019-11-20 05:00   5.1   5.4   208  39.4  38.1  95.2    0.00     0
2019-11-20 04:58   5.4   6.0   209  39.2  37.9  95.2    0.00     0
2019-11-20 04:56   5.8   6.2   207  39.2  37.9  95.2    0.00     0
2019-11-20 04:54   5.6   6.2   202  39.2  38.0  95.3    0.00     0
2019-11-20 04:52   4.7   5.2   204  39.2  38.0  95.3    0.00     0
2019-11-20 04:50   5.1   5.8   206  39.2  38.0  95.3    0.00     0
2019-11-20 04:48   6.0   6.4   211  39.2  38.0  95.4    0.00     0
2019-11-20 04:46   5.6   6.0   213  39.2  38.0  95.4    0.00     0
2019-11-20 04:44   6.0   6.6   214  39.2  38.0  95.4    0.00     0
2019-11-20 04:42   5.8   6.4   208  39.2  38.0  95.5    0.00     0
2019-11-20 04:40   5.8   6.8   205  39.2  38.0  95.4    0.00     0
2019-11-20 04:38   6.0   6.4   206  39.2  38.0  95.4    0.00     0
2019-11-20 04:36   5.8   6.4   208  39.2  38.0  95.3    0.00     0
2019-11-20 04:34   5.6   6.0   208  39.2  38.0  95.3    0.00     0
2019-11-20 04:32   5.2   6.0   207  39.2  37.9  95.2    0.00     0
2019-11-20 04:30   4.7   5.1   209  39.0  37.7  95.1    0.00     0
2019-11-20 04:28   4.3   4.7   204  39.0  37.7  95.0    0.00     0
2019-11-20 04:26   4.1   4.7   205  39.0  37.7  95.0    0.00     0
2019-11-20 04:24   3.7   4.1   205  39.2  37.9  94.9    0.00     0
2019-11-20 04:22   3.5   3.9   205  39.2  37.8  94.8    0.00     0
2019-11-20 04:20   3.3   3.7   202  39.2  37.8  94.7    0.00     0
2019-11-20 04:18   3.1   3.3   203  39.2  37.8  94.6    0.00     0
2019-11-20 04:16   2.9   3.3   203  39.2  37.8  94.5    0.00     0
2019-11-20 04:14   3.3   3.5   205  39.2  37.8  94.5    0.00     0
2019-11-20 04:12   3.5   3.9   208  39.2  37.8  94.5    0.00     0
2019-11-20 04:10   3.7   4.1   205  39.4  37.9  94.4    0.00     0
2019-11-20 04:08   4.1   4.3   201  39.2  37.7  94.3    0.00     0
2019-11-20 04:06   3.7   3.9   201  39.4  37.9  94.2    0.00     0